Time;durP1;ratioP1;P1;durP2;ratioP2;P2;SDS_P1;SDS_P2;PMS_P1;PMS_P2;Temp;Humidity;BMP_temperature;BMP_pressure;BME280_temperature;BME280_humidity;BME280_pressure;Samples;Min_cycle;Max_cycle;Signal;HPM_P1;HPM_P2
2022/06/18 00:00:22;;;;;;;0.00;0.00;;;21.30;66.00;;;;;;5029721;28;20085;-67
2022/06/18 00:02:48;;;;;;;0.17;0.17;;;21.30;66.60;;;;;;5028379;28;20499;-67
2022/06/18 00:05:17;;;;;;;0.00;0.00;;;21.30;66.60;;;;;;5026128;28;20073;-66
2022/06/18 00:07:46;;;;;;;0.00;0.00;;;21.30;66.70;;;;;;5029198;28;20124;-67
2022/06/18 00:10:18;;;;;;;0.00;0.00;;;21.30;66.40;;;;;;5017814;28;20041;-66
2022/06/18 00:15:32;;;;;;;0.00;0.00;;;21.30;67.10;;;;;;5013440;28;20084;-67
2022/06/18 00:17:58;;;;;;;0.00;0.00;;;21.20;66.90;;;;;;5009841;28;20081;-67
2022/06/18 00:20:33;;;;;;;0.00;0.00;;;21.10;66.90;;;;;;5009761;28;20072;-67
2022/06/18 00:23:01;;;;;;;0.00;0.00;;;21.10;67.00;;;;;;5009901;28;20475;-67
2022/06/18 00:25:32;;;;;;;0.00;0.00;;;21.10;67.00;;;;;;5009715;28;20050;-67
2022/06/18 00:27:58;;;;;;;0.00;0.00;;;21.00;67.60;;;;;;5020409;28;20176;-67
2022/06/18 00:30:26;;;;;;;0.00;0.00;;;21.00;67.30;;;;;;5029167;28;20120;-67
2022/06/18 00:32:52;;;;;;;0.00;0.00;;;20.90;67.10;;;;;;5040045;28;20040;-67
2022/06/18 00:35:18;;;;;;;0.00;0.00;;;20.90;67.20;;;;;;5019451;28;20049;-67
2022/06/18 00:37:45;;;;;;;0.00;0.00;;;20.80;67.60;;;;;;5044122;28;20128;-67
2022/06/18 00:40:26;;;;;;;0.00;0.00;;;20.80;67.50;;;;;;5033753;28;20038;-67
2022/06/18 00:42:52;;;;;;;0.00;0.00;;;20.80;67.50;;;;;;5021960;28;20041;-67
2022/06/18 00:45:22;;;;;;;0.00;0.00;;;20.80;66.90;;;;;;5027285;28;20596;-67
2022/06/18 00:48:06;;;;;;;0.00;0.00;;;20.80;67.40;;;;;;5028959;28;20050;-67
2022/06/18 00:50:44;;;;;;;0.00;0.00;;;20.70;67.70;;;;;;5028672;28;20037;-67
2022/06/18 00:53:28;;;;;;;0.00;0.00;;;20.70;67.50;;;;;;5036343;28;20122;-67
2022/06/18 00:56:00;;;;;;;0.00;0.00;;;20.60;68.20;;;;;;5015711;28;20038;-67
2022/06/18 00:58:34;;;;;;;0.00;0.00;;;20.60;68.10;;;;;;5029449;28;20435;-68
2022/06/18 01:01:00;;;;;;;0.00;0.00;;;20.50;67.70;;;;;;5028960;28;20045;-67
2022/06/18 01:03:31;;;;;;;0.00;0.00;;;20.50;67.80;;;;;;5028269;28;20525;-67
2022/06/18 01:06:00;;;;;;;0.00;0.00;;;20.50;68.00;;;;;;5013137;28;20046;-67
2022/06/18 01:08:29;;;;;;;0.00;0.00;;;20.40;68.00;;;;;;5025978;28;20056;-67
2022/06/18 01:10:59;;;;;;;0.00;0.00;;;20.40;68.00;;;;;;5033085;28;20052;-67
2022/06/18 01:13:31;;;;;;;0.00;0.00;;;20.30;69.00;;;;;;5021397;28;20419;-68
2022/06/18 01:15:58;;;;;;;0.05;0.05;;;20.30;69.70;;;;;;5025472;28;20050;-67
2022/06/18 01:18:24;;;;;;;0.00;0.00;;;20.20;70.20;;;;;;5033170;28;20053;-67
2022/06/18 01:21:00;;;;;;;0.10;0.10;;;20.10;70.50;;;;;;5042392;28;20126;-67
2022/06/18 01:23:51;;;;;;;0.00;0.00;;;20.10;70.80;;;;;;5032293;28;20051;-68
2022/06/18 01:26:18;;;;;;;;;;;20.00;71.60;;;;;;5032840;28;21086;-67
2022/06/18 01:28:44;;;;;;;0.00;0.00;;;20.00;72.20;;;;;;5034326;28;20006;-67
2022/06/18 01:31:09;;;;;;;0.93;0.85;;;19.80;72.60;;;;;;5039115;28;20478;-67
2022/06/18 01:33:36;;;;;;;0.00;0.00;;;19.70;74.30;;;;;;5031291;28;20581;-68
2022/06/18 01:36:07;;;;;;;2.83;0.65;;;19.70;74.60;;;;;;5035374;28;20052;-67
2022/06/18 01:38:36;;;;;;;0.17;0.10;;;19.60;75.50;;;;;;5051799;28;20048;-67
2022/06/18 01:44:10;;;;;;;0.00;0.00;;;19.50;76.00;;;;;;5031999;28;20503;-67
2022/06/18 01:46:38;;;;;;;0.10;0.10;;;19.40;76.60;;;;;;5033813;28;20099;-67
2022/06/18 01:49:06;;;;;;;0.10;0.10;;;19.30;76.40;;;;;;5036689;28;20047;-67
2022/06/18 01:51:38;;;;;;;0.10;0.10;;;19.20;77.10;;;;;;5033439;28;20038;-68
2022/06/18 01:54:12;;;;;;;0.13;0.13;;;19.20;77.90;;;;;;5033500;28;20064;-67
2022/06/18 01:56:45;;;;;;;0.80;0.35;;;19.10;77.80;;;;;;5030393;28;20049;-67
2022/06/18 01:59:20;;;;;;;0.00;0.00;;;19.10;79.00;;;;;;5039352;28;20056;-67
2022/06/18 02:01:48;;;;;;;0.00;0.00;;;19.00;79.10;;;;;;5032570;28;20045;-67
2022/06/18 02:04:17;;;;;;;0.00;0.00;;;19.00;79.20;;;;;;5018853;28;20091;-67
2022/06/18 02:06:44;;;;;;;0.08;0.08;;;18.90;79.70;;;;;;5031753;28;20052;-67
2022/06/18 02:09:28;;;;;;;0.15;0.15;;;18.90;79.50;;;;;;5031579;28;20075;-68
2022/06/18 02:12:00;;;;;;;0.00;0.00;;;18.80;79.80;;;;;;5034925;28;20049;-68
2022/06/18 02:14:27;;;;;;;0.00;0.00;;;18.80;80.10;;;;;;5042967;28;20082;-67
2022/06/18 02:16:56;;;;;;;0.00;0.00;;;18.80;80.00;;;;;;5035920;28;20041;-67
2022/06/18 02:19:22;;;;;;;0.30;0.30;;;18.60;81.10;;;;;;5043666;28;20041;-67
2022/06/18 02:21:52;;;;;;;0.00;0.00;;;18.60;81.20;;;;;;5051218;28;20063;-67
2022/06/18 02:24:19;;;;;;;0.20;0.20;;;18.60;81.10;;;;;;5043806;28;20045;-68
2022/06/18 02:26:47;;;;;;;0.00;0.00;;;18.50;81.40;;;;;;5012602;28;20048;-67
2022/06/18 02:29:26;;;;;;;0.88;0.25;;;18.50;81.50;;;;;;5026876;28;20599;-67
2022/06/18 02:31:53;;;;;;;0.73;0.63;;;18.40;81.40;;;;;;5043479;28;20052;-67
2022/06/18 02:34:27;;;;;;;0.00;0.00;;;18.40;81.60;;;;;;5031242;28;20044;-67
2022/06/18 02:36:52;;;;;;;0.20;0.20;;;18.40;81.20;;;;;;5029581;28;20072;-67
2022/06/18 02:39:39;;;;;;;0.00;0.00;;;18.30;81.20;;;;;;5030588;28;20099;-67
2022/06/18 02:42:09;;;;;;;0.98;0.95;;;18.40;80.70;;;;;;5032247;28;20049;-67
2022/06/18 02:44:37;;;;;;;0.00;0.00;;;18.40;80.90;;;;;;5030709;28;20049;-68
2022/06/18 02:47:06;;;;;;;1.63;1.38;;;18.30;80.90;;;;;;5012934;28;20042;-67
2022/06/18 02:49:35;;;;;;;0.00;0.00;;;18.20;81.80;;;;;;5010714;28;20130;-67
2022/06/18 02:52:03;;;;;;;0.10;0.10;;;18.10;81.80;;;;;;5036108;28;20406;-67
2022/06/18 02:54:29;;;;;;;1.95;1.08;;;18.10;81.90;;;;;;5030661;28;20044;-67
2022/06/18 02:56:57;;;;;;;0.10;0.10;;;18.00;82.10;;;;;;5040121;28;20040;-67
2022/06/18 02:59:23;;;;;;;0.65;0.65;;;17.90;82.80;;;;;;5024606;28;20049;-67
2022/06/18 03:01:48;;;;;;;0.00;0.00;;;17.90;82.80;;;;;;5011110;28;20096;-67
2022/06/18 03:04:14;;;;;;;0.10;0.10;;;17.80;82.70;;;;;;5029517;28;20056;-68
2022/06/18 03:06:40;;;;;;;0.00;0.00;;;17.80;82.50;;;;;;5032315;28;20092;-67
2022/06/18 03:09:05;;;;;;;0.32;0.32;;;17.80;82.60;;;;;;5017926;28;20501;-68
2022/06/18 03:14:18;;;;;;;0.00;0.00;;;17.90;82.20;;;;;;5040424;28;20092;-67
2022/06/18 03:16:44;;;;;;;0.10;0.10;;;17.80;82.30;;;;;;5021068;28;20502;-67
2022/06/18 03:19:35;;;;;;;0.00;0.00;;;17.70;82.60;;;;;;5043909;28;20045;-67
2022/06/18 03:22:09;;;;;;;0.00;0.00;;;17.60;83.20;;;;;;5033948;28;20133;-67
2022/06/18 03:24:34;;;;;;;0.00;0.00;;;17.60;83.00;;;;;;5023543;28;20426;-67
2022/06/18 03:27:00;;;;;;;0.08;0.08;;;17.50;83.20;;;;;;5034803;28;20052;-67
2022/06/18 03:29:26;;;;;;;0.10;0.10;;;17.50;83.60;;;;;;5044911;28;20526;-67
2022/06/18 03:31:52;;;;;;;0.00;0.00;;;17.50;83.60;;;;;;5048233;28;20048;-67
2022/06/18 03:34:17;;;;;;;0.40;0.32;;;17.40;83.60;;;;;;5033429;28;20490;-67
2022/06/18 03:36:44;;;;;;;0.00;0.00;;;17.40;83.80;;;;;;5031850;28;20068;-67
2022/06/18 03:39:11;;;;;;;0.10;0.10;;;17.40;83.60;;;;;;5010536;28;20125;-67
2022/06/18 03:41:37;;;;;;;4.75;0.50;;;17.40;83.70;;;;;;5026561;28;20075;-67
2022/06/18 03:44:03;;;;;;;0.00;0.00;;;17.40;83.70;;;;;;5037319;28;20076;-67
2022/06/18 03:46:29;;;;;;;0.30;0.30;;;17.30;83.90;;;;;;5028191;28;20287;-67
2022/06/18 03:49:01;;;;;;;0.05;0.05;;;17.20;84.00;;;;;;5045592;28;20145;-67
2022/06/18 03:51:27;;;;;;;0.00;0.00;;;17.20;84.20;;;;;;5029486;28;20064;-67
2022/06/18 03:53:54;;;;;;;0.00;0.00;;;17.20;84.10;;;;;;5025515;28;20167;-67
2022/06/18 03:56:23;;;;;;;0.25;0.20;;;17.20;84.40;;;;;;5039297;28;20060;-68
2022/06/18 03:58:49;;;;;;;0.05;0.05;;;17.20;84.20;;;;;;5034411;28;20517;-67
2022/06/18 04:01:29;;;;;;;0.00;0.00;;;17.30;84.00;;;;;;5023479;28;20053;-67
2022/06/18 04:03:54;;;;;;;0.00;0.00;;;17.30;84.00;;;;;;5042680;28;20124;-67
2022/06/18 04:06:20;;;;;;;0.00;0.00;;;17.30;84.00;;;;;;5024725;28;20206;-67
2022/06/18 04:08:46;;;;;;;0.00;0.00;;;17.30;84.20;;;;;;5028741;28;20053;-67
2022/06/18 04:11:12;;;;;;;0.05;0.05;;;17.30;84.10;;;;;;5035527;28;20044;-67
2022/06/18 04:13:38;;;;;;;1.85;0.45;;;17.40;84.10;;;;;;5047968;28;20057;-67
2022/06/18 04:16:06;;;;;;;0.00;0.00;;;17.40;84.20;;;;;;5033115;28;20438;-68
2022/06/18 04:18:32;;;;;;;0.05;0.05;;;17.40;84.40;;;;;;5036646;28;20051;-67
2022/06/18 04:20:58;;;;;;;0.00;0.00;;;17.40;84.30;;;;;;5039068;28;20041;-67
2022/06/18 04:23:24;;;;;;;0.00;0.00;;;17.40;84.00;;;;;;5044516;28;20591;-67
2022/06/18 04:25:49;;;;;;;0.00;0.00;;;17.40;84.30;;;;;;5025174;28;20123;-67
2022/06/18 04:28:17;;;;;;;0.08;0.08;;;17.40;84.20;;;;;;5032105;28;20037;-67
2022/06/18 04:30:43;;;;;;;0.00;0.00;;;17.40;84.10;;;;;;5034502;28;20042;-67
2022/06/18 04:33:09;;;;;;;0.10;0.10;;;17.40;84.20;;;;;;5037280;28;20055;-67
2022/06/18 04:35:35;;;;;;;0.00;0.00;;;17.50;84.20;;;;;;5027944;28;20069;-67
2022/06/18 04:38:01;;;;;;;1.35;0.85;;;17.50;84.10;;;;;;5042996;28;20142;-67
2022/06/18 04:40:32;;;;;;;0.00;0.00;;;17.50;84.00;;;;;;5045341;28;20573;-67
2022/06/18 04:43:03;;;;;;;0.00;0.00;;;17.50;84.30;;;;;;5032086;28;20073;-67
2022/06/18 04:45:30;;;;;;;0.00;0.00;;;17.50;84.20;;;;;;5034300;28;20089;-67
2022/06/18 04:47:56;;;;;;;0.10;0.10;;;17.50;84.30;;;;;;5029884;28;20042;-67
2022/06/18 04:50:26;;;;;;;0.10;0.10;;;17.50;84.10;;;;;;5033508;28;20106;-67
2022/06/18 04:52:52;;;;;;;0.00;0.00;;;17.60;84.10;;;;;;5033129;28;20406;-67
2022/06/18 04:55:18;;;;;;;0.20;0.20;;;17.60;83.90;;;;;;5034695;28;20042;-67
2022/06/18 04:57:44;;;;;;;0.00;0.00;;;17.60;83.90;;;;;;5030549;28;20048;-67
2022/06/18 05:00:10;;;;;;;0.00;0.00;;;17.70;83.50;;;;;;5034199;28;20050;-67
2022/06/18 05:02:37;;;;;;;0.00;0.00;;;17.70;83.10;;;;;;5032327;28;20034;-67
2022/06/18 05:05:05;;;;;;;1.65;0.32;;;17.70;83.50;;;;;;5034945;28;20045;-67
2022/06/18 05:07:31;;;;;;;0.30;0.28;;;17.80;83.30;;;;;;5034413;28;20044;-67
2022/06/18 05:09:56;;;;;;;0.00;0.00;;;17.80;83.00;;;;;;5029155;28;20053;-67
2022/06/18 05:12:22;;;;;;;0.00;0.00;;;17.90;83.10;;;;;;5035157;28;20037;-68
2022/06/18 05:14:48;;;;;;;0.00;0.00;;;17.90;82.80;;;;;;5034702;28;20506;-68
2022/06/18 05:17:27;;;;;;;0.15;0.15;;;17.90;82.60;;;;;;5034942;28;20099;-68
2022/06/18 05:19:53;;;;;;;0.20;0.20;;;18.00;82.70;;;;;;5034881;28;20060;-69
2022/06/18 05:22:18;;;;;;;0.00;0.00;;;18.10;83.10;;;;;;5036347;28;20042;-69
2022/06/18 05:24:44;;;;;;;0.20;0.17;;;18.10;83.00;;;;;;5036267;28;20160;-69
2022/06/18 05:27:30;;;;;;;1.00;0.43;;;18.10;82.80;;;;;;5041898;28;20128;-69
2022/06/18 05:29:56;;;;;;;0.00;0.00;;;18.20;82.50;;;;;;5033683;28;20053;-69
2022/06/18 05:32:21;;;;;;;0.00;0.00;;;18.20;82.40;;;;;;5034325;28;20045;-70
2022/06/18 05:34:47;;;;;;;0.00;0.00;;;18.20;82.50;;;;;;5034320;28;20049;-69
2022/06/18 05:37:22;;;;;;;0.00;0.00;;;18.20;82.10;;;;;;5034831;28;20080;-69
2022/06/18 05:39:48;;;;;;;0.00;0.00;;;18.30;82.30;;;;;;5034151;28;20062;-70
2022/06/18 05:42:14;;;;;;;0.00;0.00;;;18.30;82.40;;;;;;5044914;28;20045;-69
2022/06/18 05:44:39;;;;;;;0.10;0.10;;;18.40;82.10;;;;;;5034679;28;20049;-70
2022/06/18 05:47:21;;;;;;;0.00;0.00;;;18.50;81.80;;;;;;5034032;28;20063;-69
2022/06/18 05:49:46;;;;;;;0.00;0.00;;;18.50;81.70;;;;;;5044618;28;20125;-68
2022/06/18 05:52:12;;;;;;;0.00;0.00;;;18.50;81.60;;;;;;5012223;28;20195;-67
2022/06/18 05:54:37;;;;;;;0.20;0.20;;;18.60;81.50;;;;;;5048046;28;20087;-68
2022/06/18 05:57:03;;;;;;;0.00;0.00;;;18.60;81.50;;;;;;5034556;28;20067;-68
2022/06/18 05:59:29;;;;;;;0.43;0.35;;;18.70;81.50;;;;;;5033829;28;20064;-68
2022/06/18 06:01:56;;;;;;;0.10;0.10;;;18.70;81.70;;;;;;5029662;28;20128;-68
2022/06/18 06:04:26;;;;;;;0.00;0.00;;;18.60;82.20;;;;;;5029598;28;20065;-68
2022/06/18 06:06:52;;;;;;;0.10;0.10;;;18.70;82.10;;;;;;5046019;28;20057;-68
2022/06/18 06:12:08;;;;;;;0.00;0.00;;;18.90;82.20;;;;;;5038300;28;20053;-68
2022/06/18 06:14:34;;;;;;;0.00;0.00;;;18.90;82.10;;;;;;5029127;28;20064;-68
2022/06/18 06:17:00;;;;;;;0.00;0.00;;;19.00;82.10;;;;;;5016544;28;20046;-67
2022/06/18 06:19:25;;;;;;;0.20;0.20;;;19.00;82.10;;;;;;5030439;28;20092;-68
2022/06/18 06:21:51;;;;;;;0.00;0.00;;;19.00;82.30;;;;;;5043839;28;20118;-68
2022/06/18 06:24:17;;;;;;;0.00;0.00;;;19.00;82.30;;;;;;5027291;28;20053;-68
2022/06/18 06:26:42;;;;;;;0.63;0.63;;;19.10;81.80;;;;;;5029220;28;20041;-68
2022/06/18 06:29:09;;;;;;;0.00;0.00;;;19.10;81.40;;;;;;5028983;28;20053;-68
2022/06/18 06:31:35;;;;;;;0.20;0.20;;;19.10;81.10;;;;;;5029617;28;20506;-68
2022/06/18 06:34:01;;;;;;;0.00;0.00;;;19.10;80.50;;;;;;5044002;28;20044;-68
2022/06/18 06:36:27;;;;;;;0.10;0.10;;;19.20;80.30;;;;;;5039900;28;20079;-68
2022/06/18 06:38:53;;;;;;;0.00;0.00;;;19.20;80.20;;;;;;5031090;28;20099;-71
2022/06/18 06:41:22;;;;;;;0.00;0.00;;;19.20;80.20;;;;;;5031110;28;20049;-69
2022/06/18 06:43:47;;;;;;;0.00;0.00;;;19.30;80.30;;;;;;5030917;28;20057;-67
2022/06/18 06:46:18;;;;;;;0.00;0.00;;;19.30;80.30;;;;;;5030933;28;20549;-68
2022/06/18 06:48:44;;;;;;;0.00;0.00;;;19.50;79.80;;;;;;5031530;28;20049;-68
2022/06/18 06:51:20;;;;;;;0.15;0.15;;;19.50;79.60;;;;;;5039486;28;20053;-68
2022/06/18 06:53:46;;;;;;;0.00;0.00;;;19.50;80.30;;;;;;5030761;28;20132;-68
2022/06/18 06:58:58;;;;;;;0.00;0.00;;;19.60;79.60;;;;;;5029923;28;20120;-68
2022/06/18 07:01:24;;;;;;;0.00;0.00;;;19.50;79.70;;;;;;5030332;28;20068;-67
2022/06/18 07:03:50;;;;;;;0.63;0.63;;;19.50;79.30;;;;;;5033017;28;20036;-67
2022/06/18 07:06:16;;;;;;;0.88;0.60;;;19.60;79.40;;;;;;5030008;28;20048;-69
2022/06/18 07:08:43;;;;;;;0.00;0.00;;;19.60;79.10;;;;;;5034967;28;20041;-68
2022/06/18 07:11:09;;;;;;;0.00;0.00;;;19.70;79.40;;;;;;5032431;28;20048;-68
2022/06/18 07:13:35;;;;;;;0.00;0.00;;;19.70;79.00;;;;;;5030387;28;20107;-68
2022/06/18 07:16:00;;;;;;;0.00;0.00;;;19.70;79.00;;;;;;5028309;28;20835;-67
2022/06/18 07:18:31;;;;;;;0.00;0.00;;;19.80;78.40;;;;;;5029844;28;20046;-68
2022/06/18 07:21:01;;;;;;;0.00;0.00;;;19.90;78.50;;;;;;5029933;28;20410;-67
2022/06/18 07:23:27;;;;;;;0.00;0.00;;;19.90;77.90;;;;;;5033387;28;20041;-67
2022/06/18 07:25:53;;;;;;;0.00;0.00;;;20.00;77.40;;;;;;5030710;28;20485;-68
2022/06/18 07:28:19;;;;;;;0.00;0.00;;;20.00;77.60;;;;;;5032972;28;20033;-67
2022/06/18 07:30:48;;;;;;;0.00;0.00;;;20.00;77.60;;;;;;5039283;28;20409;-67
2022/06/18 07:33:17;;;;;;;0.00;0.00;;;20.00;77.70;;;;;;5034789;28;20052;-68
2022/06/18 07:35:43;;;;;;;0.00;0.00;;;20.00;77.00;;;;;;5029731;28;20056;-71
2022/06/18 07:38:09;;;;;;;0.00;0.00;;;20.00;77.30;;;;;;5028246;28;20038;-70
2022/06/18 07:40:41;;;;;;;0.00;0.00;;;20.10;77.10;;;;;;5029680;28;20040;-70
2022/06/18 07:43:08;;;;;;;0.00;0.00;;;20.00;77.00;;;;;;5030132;28;20103;-70
2022/06/18 07:45:34;;;;;;;0.13;0.13;;;20.10;77.10;;;;;;5029777;28;20129;-71
2022/06/18 07:48:00;;;;;;;0.00;0.00;;;20.10;76.60;;;;;;5029433;28;20453;-71
2022/06/18 07:50:26;;;;;;;0.00;0.00;;;20.20;76.20;;;;;;5039012;28;20036;-70
2022/06/18 07:52:52;;;;;;;0.00;0.00;;;20.20;76.10;;;;;;5032994;28;20039;-70
2022/06/18 07:55:24;;;;;;;0.00;0.00;;;20.20;76.70;;;;;;5029146;28;20048;-70
2022/06/18 07:57:50;;;;;;;0.00;0.00;;;20.30;77.20;;;;;;5029868;28;20050;-71
2022/06/18 08:00:18;;;;;;;0.00;0.00;;;20.30;76.60;;;;;;5029057;28;20037;-71
2022/06/18 08:02:46;;;;;;;0.00;0.00;;;20.30;76.50;;;;;;5027900;28;20037;-72
2022/06/18 08:05:17;;;;;;;0.00;0.00;;;20.30;76.50;;;;;;5028939;28;20159;-72
2022/06/18 08:07:43;;;;;;;;;;;20.30;76.60;;;;;;5040196;28;20056;-72
2022/06/18 08:10:10;;;;;;;0.00;0.00;;;20.30;77.00;;;;;;5029060;28;19998;-72
2022/06/18 08:12:36;;;;;;;0.13;0.13;;;20.30;76.70;;;;;;5038432;28;20419;-71
2022/06/18 08:15:02;;;;;;;0.00;0.00;;;20.50;76.60;;;;;;5031430;28;20099;-68
2022/06/18 08:17:28;;;;;;;0.00;0.00;;;20.50;76.10;;;;;;5028661;28;20502;-72
2022/06/18 08:19:53;;;;;;;0.00;0.00;;;20.60;75.60;;;;;;5029320;28;20049;-72
2022/06/18 08:22:22;;;;;;;0.00;0.00;;;20.70;76.00;;;;;;5028649;28;20060;-74
2022/06/18 08:24:48;;;;;;;0.00;0.00;;;20.80;75.50;;;;;;5029274;28;20384;-69
2022/06/18 08:27:14;;;;;;;0.00;0.00;;;20.80;75.70;;;;;;5036228;28;20464;-69
2022/06/18 08:29:40;;;;;;;0.00;0.00;;;20.90;75.30;;;;;;5040847;28;20110;-69
2022/06/18 08:32:06;;;;;;;0.00;0.00;;;20.80;75.30;;;;;;5031407;28;20045;-70
2022/06/18 08:34:31;;;;;;;0.00;0.00;;;20.80;75.80;;;;;;5037075;28;20033;-69
2022/06/18 08:36:59;;;;;;;0.10;0.10;;;20.80;75.60;;;;;;5028725;28;20551;-69
2022/06/18 08:39:25;;;;;;;0.00;0.00;;;20.90;75.30;;;;;;5029717;28;20041;-69
2022/06/18 08:42:05;;;;;;;0.00;0.00;;;20.80;75.00;;;;;;5033096;28;20611;-69
2022/06/18 08:44:51;;;;;;;0.00;0.00;;;20.80;74.90;;;;;;5028649;28;20518;-68
2022/06/18 08:47:48;;;;;;;0.00;0.00;;;20.80;74.90;;;;;;5031257;28;20045;-68
2022/06/18 08:50:48;;;;;;;0.00;0.00;;;20.80;74.80;;;;;;5030803;28;20491;-69
2022/06/18 08:53:47;;;;;;;0.10;0.10;;;20.70;75.00;;;;;;5028559;28;20580;-67
2022/06/18 08:56:17;;;;;;;0.00;0.00;;;20.80;75.30;;;;;;5040532;28;20462;-68
2022/06/18 08:59:05;;;;;;;0.00;0.00;;;20.70;74.40;;;;;;5033415;28;20103;-67
2022/06/18 09:01:38;;;;;;;0.00;0.00;;;20.70;73.80;;;;;;5008790;28;20097;-68
2022/06/18 09:04:36;;;;;;;0.00;0.00;;;20.70;73.90;;;;;;5020581;28;20045;-68
2022/06/18 09:07:14;;;;;;;0.00;0.00;;;20.80;74.10;;;;;;5031221;28;20507;-68
2022/06/18 09:10:24;;;;;;;0.00;0.00;;;20.90;74.10;;;;;;5029386;28;20161;-69
2022/06/18 09:13:15;;;;;;;0.00;0.00;;;20.90;73.60;;;;;;5029141;28;20099;-67
2022/06/18 09:15:46;;;;;;;0.00;0.00;;;21.00;73.80;;;;;;5021830;28;20057;-67
2022/06/18 09:18:21;;;;;;;3.15;0.52;;;21.00;73.80;;;;;;5041702;28;20453;-67
2022/06/18 09:20:54;;;;;;;0.00;0.00;;;21.10;73.60;;;;;;5048841;28;20049;-67
2022/06/18 09:23:27;;;;;;;0.00;0.00;;;21.10;73.30;;;;;;5037575;28;20060;-67
2022/06/18 09:25:55;;;;;;;0.00;0.00;;;21.10;73.40;;;;;;5015922;28;20123;-66
2022/06/18 09:28:27;;;;;;;0.00;0.00;;;21.20;73.50;;;;;;5032365;28;20050;-66
2022/06/18 09:30:57;;;;;;;0.00;0.00;;;21.20;73.00;;;;;;5036543;28;20037;-67
2022/06/18 09:33:36;;;;;;;0.00;0.00;;;21.20;73.50;;;;;;5047329;28;20041;-67
2022/06/18 09:36:16;;;;;;;0.00;0.00;;;21.30;73.10;;;;;;5050011;28;20037;-67
2022/06/18 09:39:01;;;;;;;0.00;0.00;;;21.30;73.20;;;;;;5028977;28;20095;-67
2022/06/18 09:41:33;;;;;;;0.00;0.00;;;21.30;71.80;;;;;;5032062;28;20033;-66
2022/06/18 09:44:27;;;;;;;0.00;0.00;;;21.40;72.70;;;;;;5032371;28;20045;-66
2022/06/18 09:47:19;;;;;;;0.00;0.00;;;21.40;72.60;;;;;;5032116;28;20124;-67
2022/06/18 09:49:46;;;;;;;0.00;0.00;;;21.30;72.40;;;;;;5015209;28;20520;-68
2022/06/18 09:52:33;;;;;;;0.00;0.00;;;21.30;72.40;;;;;;5031557;28;20037;-67
2022/06/18 09:55:22;;;;;;;0.00;0.00;;;21.40;71.90;;;;;;5032293;28;20052;-67
2022/06/18 09:57:55;;;;;;;0.00;0.00;;;21.50;71.00;;;;;;5031586;28;20057;-68
2022/06/18 10:00:24;;;;;;;0.00;0.00;;;21.40;70.50;;;;;;5031988;28;20053;-68
2022/06/18 10:02:56;;;;;;;0.00;0.00;;;21.40;71.80;;;;;;5030685;28;20045;-68
2022/06/18 10:08:14;;;;;;;0.00;0.00;;;21.50;71.20;;;;;;5031546;28;20049;-68
2022/06/18 10:10:51;;;;;;;0.00;0.00;;;21.60;71.10;;;;;;5031724;28;20053;-68
2022/06/18 10:13:25;;;;;;;0.00;0.00;;;21.60;70.90;;;;;;5031416;28;20069;-68
2022/06/18 10:15:55;;;;;;;0.00;0.00;;;21.70;70.90;;;;;;5031407;28;20201;-67
2022/06/18 10:18:41;;;;;;;0.00;0.00;;;21.60;68.70;;;;;;5043581;28;20052;-68
2022/06/18 10:21:23;;;;;;;0.00;0.00;;;21.70;69.70;;;;;;5030477;28;20084;-68
2022/06/18 10:24:21;;;;;;;0.00;0.00;;;21.80;70.00;;;;;;5031498;28;20052;-68
2022/06/18 10:27:03;;;;;;;0.00;0.00;;;21.90;69.30;;;;;;5035784;28;20832;-67
2022/06/18 10:29:34;;;;;;;0.00;0.00;;;22.00;69.70;;;;;;5013578;28;20475;-68
2022/06/18 10:32:00;;;;;;;0.00;0.00;;;22.10;69.60;;;;;;5030795;28;20164;-68
2022/06/18 10:34:49;;;;;;;0.00;0.00;;;22.20;69.30;;;;;;5031388;28;20136;-69
2022/06/18 10:37:43;;;;;;;0.00;0.00;;;22.20;68.80;;;;;;5030081;28;20073;-67
2022/06/18 10:40:19;;;;;;;0.00;0.00;;;22.30;68.70;;;;;;5030854;28;20510;-66
2022/06/18 10:42:44;;;;;;;0.00;0.00;;;22.40;68.50;;;;;;5036805;28;20091;-71
2022/06/18 10:45:55;;;;;;;0.00;0.00;;;22.50;66.80;;;;;;5050647;28;20045;-70
2022/06/18 10:48:24;;;;;;;0.00;0.00;;;22.50;66.50;;;;;;5042199;28;20059;-68
2022/06/18 10:50:55;;;;;;;0.00;0.00;;;22.50;66.90;;;;;;5041162;28;21004;-71
2022/06/18 10:53:22;;;;;;;;;;;22.50;66.40;;;;;;5041113;28;20136;-69
2022/06/18 10:56:05;;;;;;;0.00;0.00;;;22.60;66.70;;;;;;5066163;28;19924;-70
2022/06/18 10:58:31;;;;;;;0.00;0.00;;;22.60;65.90;;;;;;5066142;28;20056;-70
2022/06/18 11:01:13;;;;;;;0.00;0.00;;;22.70;65.90;;;;;;5036828;28;20042;-66
2022/06/18 11:03:39;;;;;;;0.00;0.00;;;22.80;67.10;;;;;;5040741;28;20050;-71
2022/06/18 11:06:12;;;;;;;0.00;0.00;;;22.80;66.00;;;;;;5037143;28;20091;-67
2022/06/18 11:08:48;;;;;;;0.00;0.00;;;22.80;66.10;;;;;;5050202;28;20055;-67
2022/06/18 11:11:19;;;;;;;0.00;0.00;;;23.00;66.20;;;;;;5044437;28;20037;-66
2022/06/18 11:13:44;;;;;;;0.00;0.00;;;23.00;65.80;;;;;;5033178;28;20057;-67
2022/06/18 11:16:15;;;;;;;0.00;0.00;;;23.10;65.00;;;;;;5033012;28;20751;-67
2022/06/18 11:19:13;;;;;;;0.00;0.00;;;23.00;65.00;;;;;;5029370;28;20045;-66
2022/06/18 11:21:43;;;;;;;0.00;0.00;;;23.10;65.60;;;;;;5041592;28;20494;-67
2022/06/18 11:24:12;;;;;;;0.00;0.00;;;23.10;64.90;;;;;;5040032;28;20056;-67
2022/06/18 11:26:41;;;;;;;0.00;0.00;;;23.10;64.10;;;;;;5042504;28;20716;-67
2022/06/18 11:29:20;;;;;;;0.00;0.00;;;23.00;62.90;;;;;;5030246;28;20073;-67
2022/06/18 11:31:52;;;;;;;0.00;0.00;;;23.10;63.80;;;;;;5039717;28;20508;-67
2022/06/18 11:34:35;;;;;;;0.00;0.00;;;23.00;64.30;;;;;;5037217;28;20090;-66
2022/06/18 11:37:13;;;;;;;0.00;0.00;;;23.00;64.50;;;;;;5039848;28;20103;-67
2022/06/18 11:39:40;;;;;;;0.00;0.00;;;23.00;63.20;;;;;;5029533;28;20124;-67
2022/06/18 11:42:23;;;;;;;0.00;0.00;;;23.00;64.10;;;;;;5039947;28;20582;-67
2022/06/18 11:45:30;;;;;;;0.00;0.00;;;23.00;64.60;;;;;;5037704;28;20060;-66
2022/06/18 11:48:12;;;;;;;1.65;1.25;;;23.00;63.40;;;;;;5014298;28;20053;-66
2022/06/18 11:51:11;;;;;;;0.00;0.00;;;23.00;63.80;;;;;;5017650;28;20096;-66
2022/06/18 11:54:01;;;;;;;0.00;0.00;;;23.10;62.80;;;;;;5029024;28;20053;-65
2022/06/18 11:56:51;;;;;;;0.00;0.00;;;23.00;62.90;;;;;;5038432;28;20124;-66
2022/06/18 11:59:39;;;;;;;0.00;0.00;;;23.00;63.70;;;;;;5029510;28;20048;-66
2022/06/18 12:02:28;;;;;;;0.00;0.00;;;23.00;63.00;;;;;;5033489;28;20053;-66
2022/06/18 12:05:15;;;;;;;0.00;0.00;;;23.00;62.30;;;;;;5018000;28;20037;-67
2022/06/18 12:07:54;;;;;;;0.00;0.00;;;22.80;62.80;;;;;;5026085;28;20056;-66
2022/06/18 12:10:40;;;;;;;0.00;0.00;;;22.80;62.00;;;;;;5028744;28;20052;-66
2022/06/18 12:13:09;;;;;;;0.00;0.00;;;22.90;63.40;;;;;;5038316;28;20824;-67
2022/06/18 12:15:45;;;;;;;0.57;0.45;;;23.00;63.30;;;;;;5031647;28;20040;-67
2022/06/18 12:18:41;;;;;;;0.00;0.00;;;23.10;61.40;;;;;;5047909;28;20128;-68
2022/06/18 12:21:27;;;;;;;0.00;0.00;;;23.20;61.30;;;;;;5032509;28;20041;-69
2022/06/18 12:24:05;;;;;;;0.00;0.00;;;23.20;62.60;;;;;;5041884;28;20130;-67
2022/06/18 12:26:56;;;;;;;0.00;0.00;;;23.10;61.00;;;;;;5035215;28;20069;-67
2022/06/18 12:29:43;;;;;;;0.00;0.00;;;23.00;62.10;;;;;;5030811;28;20121;-66
2022/06/18 12:32:23;;;;;;;0.00;0.00;;;23.00;60.90;;;;;;5031113;28;20484;-67
2022/06/18 12:35:07;;;;;;;0.00;0.00;;;22.90;60.90;;;;;;5048706;28;20041;-67
2022/06/18 12:37:35;;;;;;;0.32;0.32;;;22.90;61.40;;;;;;5046428;28;20291;-66
2022/06/18 12:40:22;;;;;;;0.00;0.00;;;22.80;61.40;;;;;;5049044;28;20056;-67
2022/06/18 12:42:53;;;;;;;0.00;0.00;;;22.90;61.80;;;;;;5028572;28;20044;-67
2022/06/18 12:45:24;;;;;;;0.00;0.00;;;22.90;61.10;;;;;;5013265;28;20037;-68
2022/06/18 12:47:57;;;;;;;0.00;0.00;;;22.80;60.80;;;;;;5030908;28;20045;-69
2022/06/18 12:50:31;;;;;;;0.00;0.00;;;22.70;61.80;;;;;;5039287;28;20040;-68
2022/06/18 12:53:22;;;;;;;0.00;0.00;;;22.60;61.60;;;;;;5026532;28;20085;-68
2022/06/18 12:55:54;;;;;;;0.20;0.20;;;22.40;61.80;;;;;;5035587;28;20057;-69
2022/06/18 12:58:38;;;;;;;0.00;0.00;;;22.30;63.30;;;;;;5048433;28;20048;-69
2022/06/18 13:01:15;;;;;;;0.25;0.25;;;22.10;62.60;;;;;;5044232;28;20077;-69
2022/06/18 13:04:14;;;;;;;0.00;0.00;;;22.00;62.70;;;;;;5038461;28;20052;-69
2022/06/18 13:07:20;;;;;;;0.00;0.00;;;21.80;63.60;;;;;;5042663;28;20053;-68
2022/06/18 13:10:09;;;;;;;0.00;0.00;;;21.80;63.50;;;;;;5031290;28;20069;-67
2022/06/18 13:13:26;;;;;;;0.00;0.00;;;21.70;62.10;;;;;;5031694;28;20056;-67
2022/06/18 13:16:07;;;;;;;0.10;0.10;;;21.70;62.80;;;;;;5030510;28;20419;-67
2022/06/18 13:18:38;;;;;;;0.00;0.00;;;21.70;63.10;;;;;;5033262;28;20042;-69
2022/06/18 13:21:07;;;;;;;0.00;0.00;;;21.90;63.30;;;;;;5016063;28;20300;-70
2022/06/18 13:29:46;;;;;;;0.00;0.00;;;21.80;62.40;;;;;;5030305;28;20049;-69
2022/06/18 13:32:15;;;;;;;0.00;0.00;;;21.90;62.00;;;;;;5029727;28;20041;-69
2022/06/18 13:34:59;;;;;;;0.00;0.00;;;22.00;62.20;;;;;;5031346;28;20045;-69
2022/06/18 13:37:42;;;;;;;0.00;0.00;;;22.00;62.40;;;;;;5027169;28;20049;-69